createdAt,value
2023-03-16T00:01:55.967Z,1.20
2023-03-16T00:04:23.471Z,2.60
2023-03-16T00:06:52.236Z,1.48
2023-03-16T00:09:19.679Z,1.52
2023-03-16T00:11:47.128Z,1.40
2023-03-16T00:14:14.573Z,1.40
2023-03-16T00:16:42.018Z,1.63
2023-03-16T00:19:09.793Z,1.48
2023-03-16T00:21:37.225Z,1.30
2023-03-16T00:24:06.625Z,1.15
2023-03-16T00:26:34.074Z,1.40
2023-03-16T00:29:01.679Z,1.67
2023-03-16T00:31:29.181Z,1.65
2023-03-16T00:33:56.687Z,1.52
2023-03-16T00:36:24.122Z,1.17
2023-03-16T00:38:52.163Z,1.30
2023-03-16T00:41:22.758Z,1.65
2023-03-16T00:43:51.689Z,1.45
2023-03-16T00:46:19.437Z,1.60
2023-03-16T00:48:48.127Z,1.65
2023-03-16T00:51:18.620Z,1.83
2023-03-16T00:53:47.565Z,2.13
2023-03-16T00:56:16.012Z,1.73
2023-03-16T00:58:45.388Z,1.98
2023-03-16T01:01:16.811Z,1.52
2023-03-16T01:03:44.680Z,1.40
2023-03-16T01:06:14.776Z,1.30
2023-03-16T01:08:42.800Z,2.20
2023-03-16T01:11:12.847Z,2.28
2023-03-16T01:13:40.864Z,2.25
2023-03-16T01:16:11.587Z,1.90
2023-03-16T01:18:39.825Z,1.50
2023-03-16T01:21:09.431Z,1.60
2023-03-16T01:23:37.409Z,2.53
2023-03-16T01:26:04.995Z,1.67
2023-03-16T01:28:34.207Z,1.33
2023-03-16T01:31:03.729Z,1.23
2023-03-16T01:33:33.544Z,1.65
2023-03-16T01:36:03.929Z,1.70
2023-03-16T01:38:31.752Z,1.60
2023-03-16T01:40:59.224Z,2.17
2023-03-16T01:43:29.171Z,2.53
2023-03-16T01:46:18.428Z,1.92
2023-03-16T01:48:52.750Z,1.70
2023-03-16T01:51:24.190Z,1.63
2023-03-16T01:53:56.933Z,2.67
2023-03-16T01:56:28.539Z,2.33
2023-03-16T01:59:00.855Z,3.38
2023-03-16T02:01:29.303Z,2.20
2023-03-16T02:04:06.251Z,3.50
2023-03-16T02:06:35.274Z,2.55
2023-03-16T02:09:03.725Z,2.40
2023-03-16T02:11:31.569Z,2.50
2023-03-16T02:14:05.062Z,2.25
2023-03-16T02:16:32.548Z,2.45
2023-03-16T02:19:01.519Z,2.85
2023-03-16T02:21:34.781Z,3.17
2023-03-16T02:24:03.782Z,2.25
2023-03-16T02:26:44.656Z,2.15
2023-03-16T02:29:25.518Z,1.90
2023-03-16T02:31:55.358Z,2.67
2023-03-16T02:34:22.948Z,3.03
2023-03-16T02:36:53.133Z,3.05
2023-03-16T02:39:20.627Z,2.35
2023-03-16T02:41:48.445Z,2.92
2023-03-16T02:44:19.995Z,3.08
2023-03-16T02:46:49.073Z,1.95
2023-03-16T02:49:24.960Z,3.38
2023-03-16T02:51:52.699Z,2.42
2023-03-16T02:54:20.486Z,3.65
2023-03-16T02:56:47.951Z,2.95
2023-03-16T02:59:15.414Z,2.88
2023-03-16T03:01:42.885Z,2.55
2023-03-16T03:04:10.533Z,2.67
2023-03-16T03:06:39.319Z,2.67
2023-03-16T03:09:07.276Z,3.03
2023-03-16T03:11:34.746Z,3.72
2023-03-16T03:14:02.195Z,2.65
2023-03-16T03:16:29.715Z,3.53
2023-03-16T03:18:57.211Z,2.80
2023-03-16T03:21:25.034Z,2.78
2023-03-16T03:23:53.994Z,3.42
2023-03-16T03:26:21.953Z,3.25
2023-03-16T03:28:49.452Z,3.78
2023-03-16T03:31:17.487Z,3.33
2023-03-16T03:33:45.445Z,3.47
2023-03-16T03:36:13.286Z,2.95
2023-03-16T03:38:40.866Z,4.35
2023-03-16T03:41:09.665Z,2.95
2023-03-16T03:43:37.273Z,2.08
2023-03-16T03:46:05.205Z,2.40
2023-03-16T03:48:33.587Z,3.67
2023-03-16T03:51:01.059Z,3.35
2023-03-16T03:53:28.503Z,3.97
2023-03-16T03:55:55.952Z,2.20
2023-03-16T03:58:24.716Z,3.20
2023-03-16T04:00:52.976Z,3.28
2023-03-16T04:03:20.504Z,2.97
2023-03-16T04:05:48.102Z,2.70
2023-03-16T04:08:15.758Z,2.83
2023-03-16T04:10:43.222Z,2.25
2023-03-16T04:13:10.721Z,2.08
2023-03-16T04:15:39.912Z,3.13
2023-03-16T04:20:34.708Z,1.75
2023-03-16T04:23:02.173Z,3.47
2023-03-16T04:25:30.778Z,1.85
2023-03-16T04:27:58.525Z,2.53
2023-03-16T04:30:26.297Z,2.65
2023-03-16T04:32:55.327Z,2.97
2023-03-16T04:35:23.311Z,2.95
2023-03-16T04:37:50.917Z,2.65
2023-03-16T04:40:19.331Z,2.40
2023-03-16T04:42:48.109Z,2.13
2023-03-16T04:45:18.406Z,1.52
2023-03-16T04:47:45.919Z,2.17
2023-03-16T04:50:14.784Z,1.95
2023-03-16T04:52:42.262Z,3.63
2023-03-16T04:55:10.183Z,2.53
2023-03-16T04:57:37.624Z,2.58
2023-03-16T05:00:11.510Z,2.97
2023-03-16T05:02:39.001Z,3.10
2023-03-16T05:05:07.287Z,3.10
2023-03-16T05:07:36.122Z,2.95
2023-03-16T05:10:04.086Z,2.33
2023-03-16T05:12:31.616Z,2.70
2023-03-16T05:14:59.136Z,2.38
2023-03-16T05:17:26.554Z,1.50
2023-03-16T05:19:54.099Z,2.70
2023-03-16T05:22:21.594Z,1.77
2023-03-16T05:24:50.399Z,2.95
2023-03-16T05:27:18.252Z,2.55
2023-03-16T05:29:46.681Z,2.45
2023-03-16T05:32:14.467Z,2.17
2023-03-16T05:34:43.182Z,1.98
2023-03-16T05:37:10.844Z,3.13
2023-03-16T05:39:38.310Z,3.35
2023-03-16T05:42:07.308Z,2.72
2023-03-16T05:44:35.134Z,2.00
2023-03-16T05:47:02.687Z,2.30
2023-03-16T05:49:31.217Z,1.10
2023-03-16T05:51:58.673Z,2.58
2023-03-16T05:54:26.143Z,2.78
2023-03-16T05:56:54.528Z,2.38
2023-03-16T05:59:23.363Z,2.80
2023-03-16T06:01:51.014Z,2.67
2023-03-16T06:04:18.512Z,4.10
2023-03-16T06:06:46.042Z,2.95
2023-03-16T06:09:13.481Z,2.63
2023-03-16T06:11:40.993Z,2.15
2023-03-16T06:14:08.523Z,2.40
2023-03-16T06:16:37.365Z,3.10
2023-03-16T06:19:04.885Z,2.35
2023-03-16T06:21:32.319Z,2.95
2023-03-16T06:23:59.804Z,2.58
2023-03-16T06:26:27.291Z,3.47
2023-03-16T06:28:54.776Z,2.63
2023-03-16T06:31:22.235Z,2.03
2023-03-16T06:33:51.447Z,2.67
2023-03-16T06:38:46.187Z,1.65
2023-03-16T06:41:13.891Z,1.42
2023-03-16T06:43:42.397Z,2.85
2023-03-16T06:46:11.097Z,2.92
2023-03-16T06:48:38.580Z,2.10
2023-03-16T06:51:07.571Z,2.75
2023-03-16T06:53:35.021Z,3.28
2023-03-16T06:56:02.494Z,1.52
2023-03-16T06:58:29.943Z,2.65
2023-03-16T07:00:57.469Z,1.95
2023-03-16T07:03:24.897Z,3.15
2023-03-16T07:05:52.358Z,2.70
2023-03-16T07:08:21.167Z,2.53
2023-03-16T07:10:48.699Z,1.48
2023-03-16T07:13:16.148Z,2.38
2023-03-16T07:15:44.508Z,3.38
2023-03-16T07:18:12.419Z,2.30
2023-03-16T07:20:40.070Z,3.65
2023-03-16T07:23:07.525Z,2.45
2023-03-16T07:25:36.336Z,4.13
2023-03-16T07:28:09.454Z,2.55
2023-03-16T07:30:36.936Z,3.08
2023-03-16T07:33:05.278Z,1.63
2023-03-16T07:35:33.263Z,1.35
2023-03-16T07:38:01.424Z,1.90
2023-03-16T07:40:29.118Z,1.88
2023-03-16T07:42:58.075Z,2.70
2023-03-16T07:45:25.684Z,3.08
2023-03-16T07:47:53.439Z,2.60
2023-03-16T07:50:22.172Z,2.45
2023-03-16T07:52:49.806Z,1.20
2023-03-16T07:55:17.570Z,2.65
2023-03-16T07:57:47.798Z,0.95
2023-03-16T08:00:20.393Z,3.80
2023-03-16T08:02:47.874Z,2.70
2023-03-16T08:05:16.081Z,2.78
2023-03-16T08:07:43.962Z,3.25
2023-03-16T08:10:12.373Z,1.60
2023-03-16T08:12:40.241Z,1.70
2023-03-16T08:15:10.038Z,2.20
2023-03-16T08:17:41.548Z,0.10
2023-03-16T08:20:12.590Z,1.52
2023-03-16T08:22:40.090Z,1.27
2023-03-16T08:25:10.478Z,2.60
2023-03-16T08:27:38.725Z,3.33
2023-03-16T08:30:07.563Z,2.28
2023-03-16T08:32:35.110Z,2.95
2023-03-16T08:35:04.000Z,1.23
2023-03-16T08:37:31.663Z,1.85
2023-03-16T08:40:00.299Z,0.55
2023-03-16T08:42:28.777Z,2.60
2023-03-16T08:44:56.263Z,2.47
2023-03-16T08:47:24.426Z,3.42
2023-03-16T08:49:52.175Z,1.80
2023-03-16T08:52:22.253Z,1.17
2023-03-16T08:55:02.365Z,3.30
2023-03-16T08:57:31.088Z,1.40
2023-03-16T08:59:58.544Z,2.28
2023-03-16T09:02:26.579Z,2.30
2023-03-16T09:04:54.615Z,1.48
2023-03-16T09:07:23.435Z,2.42
2023-03-16T09:09:51.427Z,1.73
2023-03-16T09:12:20.510Z,0.98
2023-03-16T09:17:16.444Z,1.58
2023-03-16T09:19:52.900Z,1.60
2023-03-16T09:22:24.051Z,2.15
2023-03-16T09:24:51.541Z,2.08
2023-03-16T09:27:19.222Z,2.13
2023-03-16T09:29:47.554Z,1.52
2023-03-16T09:32:15.323Z,2.35
2023-03-16T09:34:43.036Z,0.90
2023-03-16T09:37:10.834Z,1.60
2023-03-16T09:39:40.312Z,2.35
2023-03-16T09:42:15.584Z,0.82
2023-03-16T09:47:16.906Z,1.20
2023-03-16T09:49:48.128Z,0.30
2023-03-16T09:52:27.983Z,1.67
2023-03-16T09:55:01.808Z,0.93
2023-03-16T09:57:31.366Z,1.30
2023-03-16T10:00:05.904Z,1.00
2023-03-16T10:02:51.315Z,1.02
2023-03-16T10:05:22.885Z,0.90
2023-03-16T10:07:58.884Z,0.80
2023-03-16T10:10:40.039Z,0.88
2023-03-16T10:13:17.726Z,0.30
2023-03-16T10:15:47.039Z,1.23
2023-03-16T10:18:18.558Z,0.30
2023-03-16T10:20:47.963Z,0.40
2023-03-16T10:23:19.150Z,0.60
2023-03-16T10:25:50.331Z,0.75
2023-03-16T10:28:20.841Z,0.88
2023-03-16T10:30:50.132Z,0.65
2023-03-16T10:33:25.746Z,0.80
2023-03-16T10:35:56.949Z,0.73
2023-03-16T10:38:30.645Z,1.13
2023-03-16T10:41:00.574Z,0.65
2023-03-16T10:43:30.045Z,0.98
2023-03-16T10:46:00.540Z,1.00
2023-03-16T10:48:28.319Z,0.90
2023-03-16T10:50:58.115Z,0.77
2023-03-16T10:53:29.271Z,0.70
2023-03-16T10:56:01.905Z,0.43
2023-03-16T10:58:32.473Z,0.57
2023-03-16T11:01:00.457Z,1.15
2023-03-16T11:03:31.509Z,0.22
2023-03-16T11:06:02.098Z,0.35
2023-03-16T11:08:33.774Z,1.42
2023-03-16T11:11:11.777Z,0.93
2023-03-16T11:13:44.905Z,1.58
2023-03-16T11:16:24.585Z,0.80
2023-03-16T11:18:56.405Z,1.20
2023-03-16T11:21:36.423Z,0.68
2023-03-16T11:24:06.619Z,1.70
2023-03-16T11:26:40.050Z,0.70
2023-03-16T11:29:13.933Z,1.42
2023-03-16T11:31:49.212Z,0.60
2023-03-16T11:34:19.247Z,0.52
2023-03-16T11:36:54.907Z,0.63
2023-03-16T11:39:33.745Z,1.25
2023-03-16T11:42:18.889Z,0.55
2023-03-16T11:44:55.367Z,0.60
2023-03-16T11:47:39.408Z,0.85
2023-03-16T11:50:14.573Z,0.93
2023-03-16T11:52:52.094Z,0.57
2023-03-16T11:55:30.521Z,1.55
2023-03-16T11:58:12.815Z,0.80
2023-03-16T12:00:47.390Z,0.73
2023-03-16T12:03:39.766Z,1.13
2023-03-16T12:06:23.336Z,0.80
2023-03-16T12:09:14.308Z,0.50
2023-03-16T12:11:50.299Z,1.00
2023-03-16T12:14:26.714Z,1.13
2023-03-16T12:17:01.231Z,2.05
2023-03-16T12:19:47.045Z,0.38
2023-03-16T12:22:21.451Z,0.65
2023-03-16T12:24:49.395Z,0.45
2023-03-16T12:27:19.957Z,0.82
2023-03-16T12:30:01.701Z,0.60
2023-03-16T12:32:39.384Z,0.93
2023-03-16T12:35:22.545Z,0.40
2023-03-16T12:38:01.494Z,1.10
2023-03-16T12:40:36.498Z,0.90
2023-03-16T12:45:46.791Z,0.77
2023-03-16T12:48:22.206Z,1.15
2023-03-16T12:50:51.853Z,1.58
2023-03-16T12:53:28.412Z,0.47
2023-03-16T12:55:57.233Z,1.70
2023-03-16T12:58:28.321Z,0.90
2023-03-16T13:01:00.461Z,1.13
2023-03-16T13:03:29.538Z,1.40
2023-03-16T13:05:59.389Z,0.82
2023-03-16T13:08:27.653Z,0.98
2023-03-16T13:11:03.214Z,0.93
2023-03-16T13:13:30.964Z,0.85
2023-03-16T13:16:09.354Z,1.05
2023-03-16T13:18:41.555Z,0.77
2023-03-16T13:21:18.886Z,0.85
2023-03-16T13:23:57.366Z,0.98
2023-03-16T13:26:39.046Z,0.68
2023-03-16T13:29:20.372Z,0.47
2023-03-16T13:31:49.883Z,0.80
2023-03-16T13:34:23.200Z,0.73
2023-03-16T13:36:56.798Z,0.93
2023-03-16T13:39:28.138Z,1.10
2023-03-16T13:41:59.481Z,0.73
2023-03-16T13:44:29.378Z,1.23
2023-03-16T13:46:58.817Z,0.73
2023-03-16T13:49:26.520Z,1.38
2023-03-16T13:51:54.535Z,0.93
2023-03-16T13:54:25.040Z,1.23
2023-03-16T13:56:53.906Z,0.68
2023-03-16T14:01:57.876Z,0.03
2023-03-16T14:04:29.205Z,0.65
2023-03-16T14:06:59.008Z,0.95
2023-03-16T14:09:29.373Z,0.63
2023-03-16T14:11:57.783Z,1.20
2023-03-16T14:14:28.810Z,0.73
2023-03-16T14:17:05.142Z,1.60
2023-03-16T14:19:43.461Z,0.98
2023-03-16T14:22:15.451Z,0.57
2023-03-16T14:24:44.192Z,1.02
2023-03-16T14:27:27.236Z,0.90
2023-03-16T14:29:59.917Z,1.48
2023-03-16T14:32:30.074Z,0.73
2023-03-16T14:35:13.906Z,0.30
2023-03-16T14:37:42.122Z,0.65
2023-03-16T14:40:23.467Z,0.90
2023-03-16T14:42:51.503Z,1.05
2023-03-16T14:45:20.244Z,1.10
2023-03-16T14:47:49.592Z,1.35
2023-03-16T14:50:25.032Z,1.20
2023-03-16T14:52:55.658Z,0.80
2023-03-16T14:55:24.723Z,0.77
2023-03-16T14:57:53.109Z,0.45
2023-03-16T15:00:22.755Z,1.60
2023-03-16T15:03:01.501Z,1.30
2023-03-16T15:05:37.382Z,0.70
2023-03-16T15:08:07.882Z,0.70
2023-03-16T15:10:36.837Z,0.60
2023-03-16T15:13:13.182Z,0.85
2023-03-16T15:15:42.764Z,0.90
2023-03-16T15:18:10.783Z,1.02
2023-03-16T15:20:43.789Z,0.80
2023-03-16T15:23:15.645Z,1.23
2023-03-16T15:25:44.899Z,0.80
2023-03-16T15:28:15.667Z,1.00
2023-03-16T15:30:44.549Z,1.15
2023-03-16T15:35:41.861Z,1.33
2023-03-16T15:38:14.891Z,0.68
2023-03-16T15:40:45.496Z,1.10
2023-03-16T15:43:13.831Z,0.22
2023-03-16T15:45:41.531Z,0.77
2023-03-16T15:48:10.934Z,0.40
2023-03-16T15:50:42.540Z,1.00
2023-03-16T15:53:29.670Z,0.85
2023-03-16T15:56:02.796Z,1.13
2023-03-16T15:58:32.356Z,0.52
2023-03-16T16:01:02.730Z,0.90
2023-03-16T16:03:30.755Z,0.60
2023-03-16T16:05:59.654Z,1.00
2023-03-16T16:08:27.175Z,1.30
2023-03-16T16:10:54.869Z,1.30
2023-03-16T16:13:37.577Z,1.10
2023-03-16T16:16:10.816Z,1.40
2023-03-16T16:18:39.575Z,1.60
2023-03-16T16:21:14.978Z,0.52
2023-03-16T16:23:42.831Z,1.45
2023-03-16T16:26:21.282Z,1.20
2023-03-16T16:28:48.789Z,1.27
2023-03-16T16:31:24.439Z,1.17
2023-03-16T16:33:52.773Z,1.40
2023-03-16T16:36:22.172Z,1.05
2023-03-16T16:38:50.791Z,1.33
2023-03-16T16:41:26.064Z,1.13
2023-03-16T16:43:54.061Z,1.60
2023-03-16T16:46:23.765Z,0.82
2023-03-16T16:48:53.827Z,1.63
2023-03-16T16:51:24.618Z,1.70
2023-03-16T16:53:52.895Z,1.70
2023-03-16T16:56:27.510Z,1.63
2023-03-16T16:58:56.187Z,1.50
2023-03-16T17:01:27.578Z,1.92
2023-03-16T17:03:55.502Z,1.55
2023-03-16T17:06:24.321Z,2.20
2023-03-16T17:11:22.658Z,2.17
2023-03-16T17:13:51.376Z,2.13
2023-03-16T17:16:21.210Z,2.42
2023-03-16T17:18:49.384Z,2.05
2023-03-16T17:21:19.648Z,1.70
2023-03-16T17:23:49.104Z,2.13
2023-03-16T17:26:20.068Z,1.50
2023-03-16T17:28:51.776Z,1.80
2023-03-16T17:31:23.209Z,2.13
2023-03-16T17:33:52.264Z,1.42
2023-03-16T17:36:20.589Z,1.88
2023-03-16T17:38:49.845Z,1.42
2023-03-16T17:41:25.781Z,2.13
2023-03-16T17:43:55.303Z,2.05
2023-03-16T17:46:25.939Z,1.95
2023-03-16T17:48:55.493Z,2.20
2023-03-16T17:51:25.478Z,2.60
2023-03-16T17:53:55.654Z,1.75
2023-03-16T17:56:25.600Z,1.90
2023-03-16T17:58:57.000Z,2.63
2023-03-16T18:01:28.978Z,2.22
2023-03-16T18:03:56.703Z,1.85
2023-03-16T18:06:26.077Z,2.28
2023-03-16T18:08:54.864Z,2.17
2023-03-16T18:11:25.218Z,2.38
2023-03-16T18:13:53.523Z,2.92
2023-03-16T18:16:28.051Z,3.78
2023-03-16T18:18:59.621Z,2.95
2023-03-16T18:21:28.192Z,3.13
2023-03-16T18:23:57.096Z,3.80
2023-03-16T18:28:53.310Z,2.45
2023-03-16T18:31:23.689Z,2.35
2023-03-16T18:33:53.703Z,2.45
2023-03-16T18:36:24.906Z,2.20
2023-03-16T18:38:53.674Z,2.35
2023-03-16T18:41:24.302Z,3.00
2023-03-16T18:43:53.219Z,2.67
2023-03-16T18:46:24.331Z,2.97
2023-03-16T18:48:53.371Z,3.13
2023-03-16T18:51:21.581Z,2.38
2023-03-16T18:53:49.284Z,2.13
2023-03-16T18:56:22.673Z,2.45
2023-03-16T18:58:52.399Z,2.47
2023-03-16T19:01:24.513Z,2.70
2023-03-16T19:03:53.330Z,2.30
2023-03-16T19:06:29.463Z,1.70
2023-03-16T19:09:01.838Z,2.30
2023-03-16T19:11:31.279Z,2.05
2023-03-16T19:13:58.711Z,2.47
2023-03-16T19:16:26.976Z,2.95
2023-03-16T19:18:54.432Z,2.72
2023-03-16T19:21:23.456Z,2.47
2023-03-16T19:23:57.959Z,1.88
2023-03-16T19:26:25.792Z,2.22
2023-03-16T19:28:54.931Z,2.42
2023-03-16T19:31:24.888Z,2.17
2023-03-16T19:33:52.904Z,1.52
2023-03-16T19:36:24.725Z,0.90
2023-03-16T19:38:52.930Z,1.63
2023-03-16T19:41:24.282Z,2.72
2023-03-16T19:43:53.952Z,2.53
2023-03-16T19:46:21.958Z,2.22
2023-03-16T19:48:49.736Z,2.47
2023-03-16T19:51:18.477Z,2.17
2023-03-16T19:53:46.054Z,2.00
2023-03-16T19:56:16.070Z,2.20
2023-03-16T19:58:46.017Z,2.63
2023-03-16T20:01:20.069Z,1.55
2023-03-16T20:03:48.451Z,2.53
2023-03-16T20:06:18.957Z,1.83
2023-03-16T20:08:47.856Z,2.35
2023-03-16T20:13:46.848Z,1.60
2023-03-16T20:16:21.150Z,2.15
2023-03-16T20:18:52.305Z,1.83
2023-03-16T20:21:20.234Z,2.22
2023-03-16T20:23:47.970Z,2.63
2023-03-16T20:26:18.743Z,2.05
2023-03-16T20:28:48.235Z,2.65
2023-03-16T20:31:21.029Z,2.13
2023-03-16T20:33:49.298Z,2.60
2023-03-16T20:36:17.037Z,2.10
2023-03-16T20:38:44.583Z,2.38
2023-03-16T20:41:18.960Z,2.13
2023-03-16T20:43:46.539Z,2.30
2023-03-16T20:46:17.569Z,2.42
2023-03-16T20:48:46.879Z,1.90
2023-03-16T20:51:15.440Z,1.90
2023-03-16T20:53:44.165Z,1.75
2023-03-16T20:56:17.349Z,2.20
2023-03-16T20:58:47.737Z,1.63
2023-03-16T21:01:18.237Z,2.35
2023-03-16T21:03:48.408Z,1.92
2023-03-16T21:06:23.547Z,2.38
2023-03-16T21:11:23.459Z,1.42
2023-03-16T21:13:51.644Z,2.05
2023-03-16T21:16:19.982Z,1.80
2023-03-16T21:18:49.280Z,2.00
2023-03-16T21:21:18.235Z,1.77
2023-03-16T21:26:17.239Z,2.08
2023-03-16T21:28:47.941Z,1.40
2023-03-16T21:31:19.711Z,1.92
2023-03-16T21:33:49.527Z,1.98
2023-03-16T21:36:19.240Z,1.90
2023-03-16T21:38:47.430Z,1.98
2023-03-16T21:41:16.521Z,1.98
2023-03-16T21:43:44.933Z,2.22
2023-03-16T21:46:17.967Z,1.75
2023-03-16T21:48:48.817Z,1.65
2023-03-16T21:51:19.686Z,2.47
2023-03-16T21:53:48.687Z,2.10
2023-03-16T21:58:45.510Z,1.80
2023-03-16T22:01:22.957Z,2.28
2023-03-16T22:03:52.892Z,1.83
2023-03-16T22:06:22.283Z,1.83
2023-03-16T22:08:51.158Z,1.90
2023-03-16T22:11:19.888Z,2.03
2023-03-16T22:13:47.712Z,1.75
2023-03-16T22:16:17.172Z,2.10
2023-03-16T22:18:46.947Z,2.35
2023-03-16T22:21:28.474Z,1.58
2023-03-16T22:23:57.494Z,1.80
2023-03-16T22:26:25.322Z,1.63
2023-03-16T22:28:53.011Z,1.88
2023-03-16T22:31:24.511Z,1.73
2023-03-16T22:33:52.172Z,1.73
2023-03-16T22:36:22.277Z,1.73
2023-03-16T22:38:56.853Z,2.03
2023-03-16T22:41:24.690Z,2.17
2023-03-16T22:43:52.542Z,1.77
2023-03-16T22:46:23.271Z,1.80
2023-03-16T22:48:51.356Z,2.42
2023-03-16T22:51:24.707Z,2.35
2023-03-16T22:53:56.330Z,1.98
2023-03-16T22:56:24.838Z,1.45
2023-03-16T22:58:55.930Z,2.38
2023-03-16T23:01:27.935Z,2.58
2023-03-16T23:03:55.630Z,1.80
2023-03-16T23:06:25.625Z,1.30
2023-03-16T23:08:55.514Z,1.98
2023-03-16T23:11:27.324Z,1.45
2023-03-16T23:13:55.875Z,1.63
2023-03-16T23:16:25.777Z,1.17
2023-03-16T23:18:53.950Z,1.48
2023-03-16T23:21:23.414Z,0.75
2023-03-16T23:24:03.032Z,1.92
2023-03-16T23:26:32.902Z,1.52
2023-03-16T23:29:00.414Z,1.63
2023-03-16T23:31:28.543Z,0.98
2023-03-16T23:33:56.047Z,1.30
2023-03-16T23:36:25.689Z,1.38
2023-03-16T23:38:53.178Z,1.98
2023-03-16T23:41:23.111Z,1.80
2023-03-16T23:43:52.476Z,2.00
2023-03-16T23:46:21.858Z,1.85
2023-03-16T23:48:51.040Z,1.42
2023-03-16T23:51:22.125Z,1.55
2023-03-16T23:53:49.825Z,1.80
2023-03-16T23:56:17.822Z,1.42
2023-03-16T23:58:45.366Z,1.33
